sensor_id;sensor_type;location;lat;lon;timestamp;pressure;altitude;pressure_sealevel;temperature;humidity
76205;BME280;64986;55.672;37.628;2023-09-07T05:18:20;100007.56;;;10.46;nan
76205;BME280;64986;55.672;37.628;2023-09-07T07:58:42;100241.25;;;14.70;nan
76205;BME280;64986;55.672;37.628;2023-09-07T08:01:18;100248.56;;;15.07;nan
76205;BME280;64986;55.672;37.628;2023-09-07T08:03:45;100260.59;;;15.09;nan
76205;BME280;64986;55.672;37.628;2023-09-07T08:06:11;100236.88;;;14.89;nan
76205;BME280;64986;55.672;37.628;2023-09-07T08:08:38;100227.31;;;15.13;nan
76205;BME280;64986;55.672;37.628;2023-09-07T08:11:04;100239.69;;;15.44;nan
76205;BME280;64986;55.672;37.628;2023-09-07T08:13:34;100218.13;;;15.59;nan
76205;BME280;64986;55.672;37.628;2023-09-07T08:16:03;100212.34;;;15.44;nan
76205;BME280;64986;55.672;37.628;2023-09-07T08:18:29;100245.88;;;15.38;nan
76205;BME280;64986;55.672;37.628;2023-09-07T08:20:58;100260.16;;;15.37;nan
76205;BME280;64986;55.672;37.628;2023-09-07T08:23:23;100241.25;;;15.02;nan
76205;BME280;64986;55.672;37.628;2023-09-07T08:25:51;100257.94;;;15.09;nan
76205;BME280;64986;55.672;37.628;2023-09-07T08:28:17;100227.25;;;15.20;nan
76205;BME280;64986;55.672;37.628;2023-09-07T08:30:44;100231.66;;;15.94;nan
76205;BME280;64986;55.672;37.628;2023-09-07T08:33:10;100232.94;;;16.88;nan
76205;BME280;64986;55.672;37.628;2023-09-07T08:35:36;100229.94;;;16.97;nan
76205;BME280;64986;55.672;37.628;2023-09-07T08:38:09;100231.88;;;16.89;nan
76205;BME280;64986;55.672;37.628;2023-09-07T08:40:35;100225.59;;;17.26;nan
76205;BME280;64986;55.672;37.628;2023-09-07T08:43:04;100198.38;;;17.82;nan
76205;BME280;64986;55.672;37.628;2023-09-07T08:45:37;100228.03;;;17.39;nan
76205;BME280;64986;55.672;37.628;2023-09-07T08:48:06;100213.22;;;17.31;nan
76205;BME280;64986;55.672;37.628;2023-09-07T08:50:33;100217.38;;;17.27;nan
76205;BME280;64986;55.672;37.628;2023-09-07T08:52:59;100218.25;;;16.98;nan
76205;BME280;64986;55.672;37.628;2023-09-07T08:55:25;100222.69;;;17.27;nan
76205;BME280;64986;55.672;37.628;2023-09-07T08:57:51;100211.72;;;17.35;nan
76205;BME280;64986;55.672;37.628;2023-09-07T09:00:16;100197.69;;;17.05;nan
76205;BME280;64986;55.672;37.628;2023-09-07T09:02:43;100208.63;;;16.85;nan
76205;BME280;64986;55.672;37.628;2023-09-07T09:05:12;100192.22;;;16.88;nan
76205;BME280;64986;55.672;37.628;2023-09-07T09:07:39;100203.44;;;16.78;nan
76205;BME280;64986;55.672;37.628;2023-09-07T09:10:06;100216.22;;;17.23;nan
76205;BME280;64986;55.672;37.628;2023-09-07T09:12:32;100203.94;;;17.45;nan
76205;BME280;64986;55.672;37.628;2023-09-07T09:14:59;100224.31;;;17.28;nan
76205;BME280;64986;55.672;37.628;2023-09-07T09:17:25;100232.75;;;17.13;nan
76205;BME280;64986;55.672;37.628;2023-09-07T09:19:51;100225.09;;;16.94;nan
76205;BME280;64986;55.672;37.628;2023-09-07T09:22:17;100210.75;;;17.06;nan
76205;BME280;64986;55.672;37.628;2023-09-07T09:24:42;100205.66;;;18.67;nan
76205;BME280;64986;55.672;37.628;2023-09-07T09:27:08;100208.41;;;18.89;nan
76205;BME280;64986;55.672;37.628;2023-09-07T09:29:34;100202.69;;;18.23;nan
76205;BME280;64986;55.672;37.628;2023-09-07T09:32:03;100206.63;;;17.81;nan
76205;BME280;64986;55.672;37.628;2023-09-07T09:34:36;100224.63;;;18.42;nan
76205;BME280;64986;55.672;37.628;2023-09-07T09:37:03;100209.84;;;20.03;nan
76205;BME280;64986;55.672;37.628;2023-09-07T09:39:29;100207.56;;;22.24;nan
76205;BME280;64986;55.672;37.628;2023-09-07T09:41:55;100202.22;;;22.34;nan
76205;BME280;64986;55.672;37.628;2023-09-07T09:44:22;100194.25;;;21.02;nan
76205;BME280;64986;55.672;37.628;2023-09-07T09:46:54;100199.84;;;19.37;nan
76205;BME280;64986;55.672;37.628;2023-09-07T09:49:21;100197.97;;;18.71;nan
76205;BME280;64986;55.672;37.628;2023-09-07T09:51:50;100229.69;;;19.01;nan
76205;BME280;64986;55.672;37.628;2023-09-07T09:54:18;100225.78;;;20.95;nan
76205;BME280;64986;55.672;37.628;2023-09-07T09:56:44;100218.41;;;21.97;nan
76205;BME280;64986;55.672;37.628;2023-09-07T09:59:14;100210.88;;;23.43;nan
76205;BME280;64986;55.672;37.628;2023-09-07T10:01:46;100213.84;;;22.96;nan
76205;BME280;64986;55.672;37.628;2023-09-07T10:04:14;100209.19;;;21.73;nan
76205;BME280;64986;55.672;37.628;2023-09-07T10:06:56;100202.63;;;22.01;nan
76205;BME280;64986;55.672;37.628;2023-09-07T10:09:23;100220.41;;;21.65;nan
76205;BME280;64986;55.672;37.628;2023-09-07T10:11:53;100205.16;;;22.33;nan
76205;BME280;64986;55.672;37.628;2023-09-07T10:14:18;100201.56;;;20.53;nan
76205;BME280;64986;55.672;37.628;2023-09-07T10:16:51;100191.50;;;20.38;nan
76205;BME280;64986;55.672;37.628;2023-09-07T10:19:23;100226.38;;;19.61;nan
76205;BME280;64986;55.672;37.628;2023-09-07T10:21:51;100204.25;;;20.31;nan
76205;BME280;64986;55.672;37.628;2023-09-07T10:24:33;100150.34;;;19.30;nan
76205;BME280;64986;55.672;37.628;2023-09-07T10:27:05;100205.25;;;18.47;nan
76205;BME280;64986;55.672;37.628;2023-09-07T10:29:50;100229.28;;;18.35;nan
76205;BME280;64986;55.672;37.628;2023-09-07T10:32:18;100230.97;;;18.13;nan
76205;BME280;64986;55.672;37.628;2023-09-07T10:34:43;100215.84;;;18.01;nan
76205;BME280;64986;55.672;37.628;2023-09-07T10:37:10;100210.56;;;17.78;nan
76205;BME280;64986;55.672;37.628;2023-09-07T10:39:38;100208.00;;;17.48;nan
76205;BME280;64986;55.672;37.628;2023-09-07T10:42:04;100200.50;;;19.28;nan
76205;BME280;64986;55.672;37.628;2023-09-07T10:44:30;100192.63;;;22.84;nan
76205;BME280;64986;55.672;37.628;2023-09-07T10:46:59;100199.50;;;24.37;nan
76205;BME280;64986;55.672;37.628;2023-09-07T10:49:25;100192.97;;;25.45;nan
76205;BME280;64986;55.672;37.628;2023-09-07T10:51:51;100192.53;;;28.14;nan
76205;BME280;64986;55.672;37.628;2023-09-07T10:54:18;100189.41;;;27.24;nan
76205;BME280;64986;55.672;37.628;2023-09-07T10:56:45;100195.75;;;25.40;nan
76205;BME280;64986;55.672;37.628;2023-09-07T10:59:12;100185.75;;;24.77;nan
76205;BME280;64986;55.672;37.628;2023-09-07T11:01:38;100188.13;;;25.71;nan
76205;BME280;64986;55.672;37.628;2023-09-07T11:04:04;100173.09;;;27.16;nan
76205;BME280;64986;55.672;37.628;2023-09-07T11:06:30;100180.56;;;28.65;nan
76205;BME280;64986;55.672;37.628;2023-09-07T11:08:59;100181.44;;;29.76;nan
76205;BME280;64986;55.672;37.628;2023-09-07T11:11:26;100181.88;;;29.29;nan
76205;BME280;64986;55.672;37.628;2023-09-07T11:13:52;100195.56;;;26.03;nan
76205;BME280;64986;55.672;37.628;2023-09-07T11:16:17;100194.75;;;26.45;nan
76205;BME280;64986;55.672;37.628;2023-09-07T11:18:45;100172.88;;;27.12;nan
76205;BME280;64986;55.672;37.628;2023-09-07T11:21:11;100171.00;;;27.54;nan
76205;BME280;64986;55.672;37.628;2023-09-07T11:23:37;100185.16;;;29.49;nan
76205;BME280;64986;55.672;37.628;2023-09-07T11:26:07;100172.91;;;31.33;nan
76205;BME280;64986;55.672;37.628;2023-09-07T11:28:33;100197.22;;;30.48;nan
76205;BME280;64986;55.672;37.628;2023-09-07T11:30:59;100170.50;;;26.92;nan
76205;BME280;64986;55.672;37.628;2023-09-07T11:33:25;100195.94;;;23.97;nan
76205;BME280;64986;55.672;37.628;2023-09-07T11:35:52;100188.88;;;22.85;nan
76205;BME280;64986;55.672;37.628;2023-09-07T11:38:20;100201.19;;;21.78;nan
76205;BME280;64986;55.672;37.628;2023-09-07T11:40:46;100196.84;;;22.34;nan
76205;BME280;64986;55.672;37.628;2023-09-07T11:43:16;100190.78;;;21.92;nan
76205;BME280;64986;55.672;37.628;2023-09-07T11:45:45;100180.47;;;22.36;nan
76205;BME280;64986;55.672;37.628;2023-09-07T11:48:11;100174.78;;;25.85;nan
76205;BME280;64986;55.672;37.628;2023-09-07T11:50:37;100167.22;;;28.77;nan
76205;BME280;64986;55.672;37.628;2023-09-07T11:53:04;100182.66;;;29.21;nan
76205;BME280;64986;55.672;37.628;2023-09-07T11:55:30;100177.47;;;29.91;nan
76205;BME280;64986;55.672;37.628;2023-09-07T11:57:56;100163.31;;;30.54;nan
76205;BME280;64986;55.672;37.628;2023-09-07T12:00:22;100170.69;;;30.28;nan
76205;BME280;64986;55.672;37.628;2023-09-07T12:02:48;100184.72;;;30.30;nan
76205;BME280;64986;55.672;37.628;2023-09-07T12:05:13;100195.75;;;30.85;nan
76205;BME280;64986;55.672;37.628;2023-09-07T12:07:41;100185.28;;;29.75;nan
76205;BME280;64986;55.672;37.628;2023-09-07T12:10:08;100182.44;;;29.97;nan
76205;BME280;64986;55.672;37.628;2023-09-07T12:12:43;100175.44;;;29.48;nan
76205;BME280;64986;55.672;37.628;2023-09-07T12:15:10;100161.72;;;30.71;nan
76205;BME280;64986;55.672;37.628;2023-09-07T12:17:38;100168.50;;;32.29;nan
76205;BME280;64986;55.672;37.628;2023-09-07T12:20:04;100185.88;;;30.55;nan
76205;BME280;64986;55.672;37.628;2023-09-07T12:22:34;100179.22;;;29.07;nan
76205;BME280;64986;55.672;37.628;2023-09-07T12:25:05;100159.81;;;30.28;nan
76205;BME280;64986;55.672;37.628;2023-09-07T12:27:36;100171.78;;;30.79;nan
76205;BME280;64986;55.672;37.628;2023-09-07T12:30:02;100145.59;;;31.12;nan
76205;BME280;64986;55.672;37.628;2023-09-07T12:32:32;100157.44;;;31.16;nan
76205;BME280;64986;55.672;37.628;2023-09-07T12:34:57;100171.63;;;30.15;nan
76205;BME280;64986;55.672;37.628;2023-09-07T12:37:23;100156.56;;;29.34;nan
76205;BME280;64986;55.672;37.628;2023-09-07T12:39:51;100122.84;;;28.42;nan
76205;BME280;64986;55.672;37.628;2023-09-07T12:42:17;100155.94;;;29.94;nan
76205;BME280;64986;55.672;37.628;2023-09-07T12:44:44;100149.84;;;30.92;nan
76205;BME280;64986;55.672;37.628;2023-09-07T12:47:09;100146.34;;;29.88;nan
76205;BME280;64986;55.672;37.628;2023-09-07T12:49:35;100139.84;;;30.32;nan
76205;BME280;64986;55.672;37.628;2023-09-07T12:52:00;100148.69;;;31.02;nan
76205;BME280;64986;55.672;37.628;2023-09-07T12:54:28;100114.03;;;30.82;nan
76205;BME280;64986;55.672;37.628;2023-09-07T12:56:53;100132.31;;;30.21;nan
76205;BME280;64986;55.672;37.628;2023-09-07T12:59:19;100169.22;;;29.47;nan
76205;BME280;64986;55.672;37.628;2023-09-07T13:01:44;100141.59;;;26.92;nan
76205;BME280;64986;55.672;37.628;2023-09-07T13:04:10;100145.13;;;26.41;nan
76205;BME280;64986;55.672;37.628;2023-09-07T13:06:37;100130.69;;;25.46;nan
76205;BME280;64986;55.672;37.628;2023-09-07T13:09:03;100129.88;;;23.70;nan
76205;BME280;64986;55.672;37.628;2023-09-07T13:11:30;100148.44;;;21.99;nan
76205;BME280;64986;55.672;37.628;2023-09-07T13:13:55;100131.47;;;21.73;nan
76205;BME280;64986;55.672;37.628;2023-09-07T13:16:21;100140.75;;;24.04;nan
76205;BME280;64986;55.672;37.628;2023-09-07T13:18:46;100122.75;;;26.36;nan
76205;BME280;64986;55.672;37.628;2023-09-07T13:21:12;100126.91;;;25.24;nan
76205;BME280;64986;55.672;37.628;2023-09-07T13:23:38;100126.44;;;23.54;nan
76205;BME280;64986;55.672;37.628;2023-09-07T13:26:06;100138.78;;;21.98;nan
76205;BME280;64986;55.672;37.628;2023-09-07T13:28:32;100148.13;;;21.27;nan
76205;BME280;64986;55.672;37.628;2023-09-07T13:30:57;100148.53;;;20.72;nan
76205;BME280;64986;55.672;37.628;2023-09-07T13:33:23;100139.19;;;20.20;nan
76205;BME280;64986;55.672;37.628;2023-09-07T13:35:48;100134.19;;;19.58;nan
76205;BME280;64986;55.672;37.628;2023-09-07T13:38:14;100126.66;;;19.17;nan
76205;BME280;64986;55.672;37.628;2023-09-07T13:40:39;100160.94;;;19.25;nan
76205;BME280;64986;55.672;37.628;2023-09-07T13:43:05;100109.16;;;18.70;nan
76205;BME280;64986;55.672;37.628;2023-09-07T13:45:30;100123.31;;;22.10;nan
76205;BME280;64986;55.672;37.628;2023-09-07T13:47:56;100126.16;;;21.88;nan
76205;BME280;64986;55.672;37.628;2023-09-07T13:50:22;100148.78;;;21.50;nan
76205;BME280;64986;55.672;37.628;2023-09-07T13:52:48;100126.06;;;20.46;nan
76205;BME280;64986;55.672;37.628;2023-09-07T13:55:14;100132.53;;;19.74;nan
76205;BME280;64986;55.672;37.628;2023-09-07T13:57:39;100137.84;;;19.13;nan
76205;BME280;64986;55.672;37.628;2023-09-07T14:00:06;100137.50;;;18.60;nan
76205;BME280;64986;55.672;37.628;2023-09-07T14:02:31;100137.50;;;18.60;nan
76205;BME280;64986;55.672;37.628;2023-09-07T14:05:00;100133.59;;;18.50;nan
76205;BME280;64986;55.672;37.628;2023-09-07T14:07:26;100124.16;;;18.60;nan
76205;BME280;64986;55.672;37.628;2023-09-07T14:09:54;100120.13;;;18.74;nan
76205;BME280;64986;55.672;37.628;2023-09-07T14:12:25;100113.41;;;21.05;nan
76205;BME280;64986;55.672;37.628;2023-09-07T14:14:51;100113.28;;;21.80;nan
76205;BME280;64986;55.672;37.628;2023-09-07T14:17:16;100111.88;;;24.20;nan
76205;BME280;64986;55.672;37.628;2023-09-07T14:19:42;100113.66;;;23.21;nan
76205;BME280;64986;55.672;37.628;2023-09-07T14:22:07;100116.63;;;21.50;nan
76205;BME280;64986;55.672;37.628;2023-09-07T14:24:33;100106.84;;;20.49;nan
76205;BME280;64986;55.672;37.628;2023-09-07T14:26:58;100119.78;;;20.08;nan
76205;BME280;64986;55.672;37.628;2023-09-07T14:29:24;100118.72;;;19.22;nan
76205;BME280;64986;55.672;37.628;2023-09-07T14:31:52;100127.69;;;20.47;nan
76205;BME280;64986;55.672;37.628;2023-09-07T14:34:17;100104.56;;;22.15;nan
76205;BME280;64986;55.672;37.628;2023-09-07T14:36:43;100142.94;;;23.28;nan
76205;BME280;64986;55.672;37.628;2023-09-07T14:39:08;100112.78;;;24.45;nan
76205;BME280;64986;55.672;37.628;2023-09-07T14:41:37;100120.28;;;25.83;nan
76205;BME280;64986;55.672;37.628;2023-09-07T14:44:03;100100.06;;;26.55;nan
76205;BME280;64986;55.672;37.628;2023-09-07T14:46:29;100105.19;;;27.17;nan
76205;BME280;64986;55.672;37.628;2023-09-07T14:48:54;100099.09;;;27.53;nan
76205;BME280;64986;55.672;37.628;2023-09-07T14:51:21;100102.53;;;27.95;nan
76205;BME280;64986;55.672;37.628;2023-09-07T14:53:47;100105.19;;;27.58;nan
76205;BME280;64986;55.672;37.628;2023-09-07T14:56:12;100105.81;;;27.69;nan
76205;BME280;64986;55.672;37.628;2023-09-07T14:58:39;100104.59;;;27.75;nan
76205;BME280;64986;55.672;37.628;2023-09-07T15:01:04;100106.09;;;27.81;nan
76205;BME280;64986;55.672;37.628;2023-09-07T15:03:30;100098.78;;;27.41;nan
76205;BME280;64986;55.672;37.628;2023-09-07T15:05:56;100093.47;;;27.35;nan
76205;BME280;64986;55.672;37.628;2023-09-07T15:08:22;100105.88;;;26.63;nan
76205;BME280;64986;55.672;37.628;2023-09-07T15:10:48;100101.00;;;25.70;nan
76205;BME280;64986;55.672;37.628;2023-09-07T15:13:13;100102.88;;;25.03;nan
76205;BME280;64986;55.672;37.628;2023-09-07T15:15:39;100111.91;;;24.83;nan
76205;BME280;64986;55.672;37.628;2023-09-07T15:18:08;100116.63;;;24.73;nan
76205;BME280;64986;55.672;37.628;2023-09-07T15:20:35;100117.50;;;24.92;nan
76205;BME280;64986;55.672;37.628;2023-09-07T15:23:01;100113.41;;;23.87;nan
76205;BME280;64986;55.672;37.628;2023-09-07T15:25:26;100116.00;;;24.02;nan
76205;BME280;64986;55.672;37.628;2023-09-07T15:27:55;100115.41;;;23.61;nan
76205;BME280;64986;55.672;37.628;2023-09-07T15:30:22;100114.75;;;22.74;nan
76205;BME280;64986;55.672;37.628;2023-09-07T15:32:48;100118.94;;;20.89;nan
76205;BME280;64986;55.672;37.628;2023-09-07T15:35:14;100117.97;;;19.26;nan
76205;BME280;64986;55.672;37.628;2023-09-07T15:37:39;100111.38;;;18.62;nan
76205;BME280;64986;55.672;37.628;2023-09-07T15:40:08;100119.91;;;18.75;nan
76205;BME280;64986;55.672;37.628;2023-09-07T15:42:34;100112.84;;;19.20;nan
76205;BME280;64986;55.672;37.628;2023-09-07T15:44:59;100114.47;;;18.87;nan
76205;BME280;64986;55.672;37.628;2023-09-07T15:47:25;100121.16;;;17.82;nan
76205;BME280;64986;55.672;37.628;2023-09-07T15:49:52;100127.03;;;17.32;nan
76205;BME280;64986;55.672;37.628;2023-09-07T15:52:18;100129.34;;;16.94;nan
76205;BME280;64986;55.672;37.628;2023-09-07T15:54:44;100126.66;;;16.70;nan
76205;BME280;64986;55.672;37.628;2023-09-07T15:57:10;100128.91;;;16.67;nan
76205;BME280;64986;55.672;37.628;2023-09-07T15:59:35;100124.56;;;16.30;nan
76205;BME280;64986;55.672;37.628;2023-09-07T16:02:01;100127.13;;;16.37;nan
76205;BME280;64986;55.672;37.628;2023-09-07T16:04:26;100131.47;;;16.20;nan
76205;BME280;64986;55.672;37.628;2023-09-07T16:06:52;100128.75;;;16.08;nan
76205;BME280;64986;55.672;37.628;2023-09-07T16:09:17;100121.41;;;15.92;nan
76205;BME280;64986;55.672;37.628;2023-09-07T16:11:43;100120.97;;;15.76;nan
76205;BME280;64986;55.672;37.628;2023-09-07T16:14:10;100126.88;;;15.78;nan
76205;BME280;64986;55.672;37.628;2023-09-07T16:16:35;100131.44;;;15.35;nan
76205;BME280;64986;55.672;37.628;2023-09-07T16:19:01;100130.22;;;15.49;nan
76205;BME280;64986;55.672;37.628;2023-09-07T16:21:27;100127.41;;;15.25;nan
76205;BME280;64986;55.672;37.628;2023-09-07T16:23:52;100130.00;;;15.14;nan
76205;BME280;64986;55.672;37.628;2023-09-07T16:26:18;100123.53;;;15.28;nan
76205;BME280;64986;55.672;37.628;2023-09-07T16:28:44;100132.16;;;15.23;nan
76205;BME280;64986;55.672;37.628;2023-09-07T16:31:10;100132.13;;;15.05;nan
76205;BME280;64986;55.672;37.628;2023-09-07T16:33:35;100130.66;;;15.09;nan
76205;BME280;64986;55.672;37.628;2023-09-07T16:36:01;100142.88;;;15.10;nan
76205;BME280;64986;55.672;37.628;2023-09-07T16:38:26;100132.88;;;14.87;nan
76205;BME280;64986;55.672;37.628;2023-09-07T16:40:52;100122.72;;;14.84;nan
76205;BME280;64986;55.672;37.628;2023-09-07T16:43:18;100130.25;;;14.56;nan
76205;BME280;64986;55.672;37.628;2023-09-07T16:45:43;100129.53;;;14.74;nan
76205;BME280;64986;55.672;37.628;2023-09-07T16:48:09;100123.34;;;14.55;nan
76205;BME280;64986;55.672;37.628;2023-09-07T16:50:35;100130.66;;;14.59;nan
76205;BME280;64986;55.672;37.628;2023-09-07T16:53:00;100130.13;;;14.44;nan
76205;BME280;64986;55.672;37.628;2023-09-07T16:55:26;100134.41;;;14.45;nan
76205;BME280;64986;55.672;37.628;2023-09-07T16:57:55;100126.31;;;14.33;nan
76205;BME280;64986;55.672;37.628;2023-09-07T17:00:20;100135.31;;;14.26;nan
76205;BME280;64986;55.672;37.628;2023-09-07T17:02:46;100125.78;;;14.56;nan
76205;BME280;64986;55.672;37.628;2023-09-07T17:05:12;100127.28;;;14.46;nan
76205;BME280;64986;55.672;37.628;2023-09-07T17:07:40;100131.47;;;14.22;nan
76205;BME280;64986;55.672;37.628;2023-09-07T17:10:06;100132.00;;;13.99;nan
76205;BME280;64986;55.672;37.628;2023-09-07T17:12:31;100126.13;;;13.90;nan
76205;BME280;64986;55.672;37.628;2023-09-07T17:14:57;100143.50;;;14.18;nan
76205;BME280;64986;55.672;37.628;2023-09-07T17:17:24;100135.28;;;13.94;nan
76205;BME280;64986;55.672;37.628;2023-09-07T17:19:50;100124.09;;;13.92;nan
76205;BME280;64986;55.672;37.628;2023-09-07T17:22:15;100121.25;;;13.87;nan
76205;BME280;64986;55.672;37.628;2023-09-07T17:24:41;100135.03;;;14.02;nan
76205;BME280;64986;55.672;37.628;2023-09-07T17:27:07;100120.06;;;13.83;nan
76205;BME280;64986;55.672;37.628;2023-09-07T17:29:32;100120.06;;;13.83;nan
76205;BME280;64986;55.672;37.628;2023-09-07T17:31:58;100128.47;;;13.67;nan
76205;BME280;64986;55.672;37.628;2023-09-07T17:34:24;100121.53;;;13.72;nan
76205;BME280;64986;55.672;37.628;2023-09-07T17:36:50;100114.19;;;13.74;nan
76205;BME280;64986;55.672;37.628;2023-09-07T17:39:15;100119.50;;;13.68;nan
76205;BME280;64986;55.672;37.628;2023-09-07T17:41:41;100124.94;;;13.86;nan
76205;BME280;64986;55.672;37.628;2023-09-07T17:44:07;100118.03;;;13.85;nan
76205;BME280;64986;55.672;37.628;2023-09-07T17:46:35;100124.69;;;13.94;nan
76205;BME280;64986;55.672;37.628;2023-09-07T17:49:03;100122.03;;;13.94;nan
76205;BME280;64986;55.672;37.628;2023-09-07T17:51:29;100123.25;;;13.98;nan
76205;BME280;64986;55.672;37.628;2023-09-07T17:53:55;100134.94;;;14.22;nan
76205;BME280;64986;55.672;37.628;2023-09-07T17:56:21;100136.25;;;14.06;nan
76205;BME280;64986;55.672;37.628;2023-09-07T17:58:46;100131.78;;;14.00;nan
76205;BME280;64986;55.672;37.628;2023-09-07T18:01:14;100126.06;;;14.03;nan
76205;BME280;64986;55.672;37.628;2023-09-07T18:03:40;100132.63;;;13.94;nan
76205;BME280;64986;55.672;37.628;2023-09-07T18:06:06;100120.00;;;13.96;nan
76205;BME280;64986;55.672;37.628;2023-09-07T18:08:33;100125.50;;;13.95;nan
76205;BME280;64986;55.672;37.628;2023-09-07T18:10:59;100119.66;;;13.79;nan
76205;BME280;64986;55.672;37.628;2023-09-07T18:13:24;100126.97;;;13.91;nan
76205;BME280;64986;55.672;37.628;2023-09-07T18:15:50;100116.22;;;13.79;nan
76205;BME280;64986;55.672;37.628;2023-09-07T18:18:15;100109.28;;;13.78;nan
76205;BME280;64986;55.672;37.628;2023-09-07T18:20:41;100110.91;;;13.79;nan
76205;BME280;64986;55.672;37.628;2023-09-07T18:23:07;100108.28;;;13.79;nan
76205;BME280;64986;55.672;37.628;2023-09-07T18:25:37;100119.84;;;13.91;nan
76205;BME280;64986;55.672;37.628;2023-09-07T18:28:05;100119.41;;;13.94;nan
76205;BME280;64986;55.672;37.628;2023-09-07T18:30:34;100112.25;;;13.95;nan
76205;BME280;64986;55.672;37.628;2023-09-07T18:33:03;100107.78;;;13.95;nan
76205;BME280;64986;55.672;37.628;2023-09-07T18:35:29;100106.38;;;13.93;nan
76205;BME280;64986;55.672;37.628;2023-09-07T18:37:55;100118.81;;;13.92;nan
76205;BME280;64986;55.672;37.628;2023-09-07T18:40:21;100101.69;;;13.95;nan
76205;BME280;64986;55.672;37.628;2023-09-07T18:42:47;100086.41;;;13.90;nan
76205;BME280;64986;55.672;37.628;2023-09-07T18:45:12;100100.25;;;13.99;nan
76205;BME280;64986;55.672;37.628;2023-09-07T18:47:38;100087.44;;;13.89;nan
76205;BME280;64986;55.672;37.628;2023-09-07T18:50:04;100097.22;;;13.88;nan
76205;BME280;64986;55.672;37.628;2023-09-07T18:52:30;100084.84;;;13.82;nan
76205;BME280;64986;55.672;37.628;2023-09-07T18:54:58;100083.63;;;13.85;nan
76205;BME280;64986;55.672;37.628;2023-09-07T18:57:23;100089.41;;;13.62;nan
76205;BME280;64986;55.672;37.628;2023-09-07T18:59:49;100093.63;;;13.76;nan
76205;BME280;64986;55.672;37.628;2023-09-07T19:02:17;100083.09;;;13.63;nan
76205;BME280;64986;55.672;37.628;2023-09-07T19:04:43;100084.44;;;13.85;nan
76205;BME280;64986;55.672;37.628;2023-09-07T19:07:09;100075.31;;;13.75;nan
76205;BME280;64986;55.672;37.628;2023-09-07T19:09:34;100087.06;;;13.85;nan
76205;BME280;64986;55.672;37.628;2023-09-07T19:12:00;100080.66;;;13.62;nan
76205;BME280;64986;55.672;37.628;2023-09-07T19:14:25;100081.81;;;13.79;nan
76205;BME280;64986;55.672;37.628;2023-09-07T19:16:51;100077.16;;;13.68;nan
76205;BME280;64986;55.672;37.628;2023-09-07T19:19:17;100070.91;;;13.62;nan
76205;BME280;64986;55.672;37.628;2023-09-07T19:21:43;100077.31;;;13.79;nan
76205;BME280;64986;55.672;37.628;2023-09-07T19:24:09;100055.31;;;13.85;nan
76205;BME280;64986;55.672;37.628;2023-09-07T19:26:36;100055.94;;;13.81;nan
76205;BME280;64986;55.672;37.628;2023-09-07T19:29:06;100059.84;;;13.78;nan
76205;BME280;64986;55.672;37.628;2023-09-07T19:31:32;100062.50;;;13.72;nan
76205;BME280;64986;55.672;37.628;2023-09-07T19:33:58;100050.91;;;13.73;nan
76205;BME280;64986;55.672;37.628;2023-09-07T19:36:25;100058.06;;;13.66;nan
76205;BME280;64986;55.672;37.628;2023-09-07T19:38:53;100056.41;;;13.71;nan
76205;BME280;64986;55.672;37.628;2023-09-07T19:41:19;100046.00;;;13.76;nan
76205;BME280;64986;55.672;37.628;2023-09-07T19:43:45;100052.13;;;13.70;nan
76205;BME280;64986;55.672;37.628;2023-09-07T19:46:11;100055.00;;;13.69;nan
76205;BME280;64986;55.672;37.628;2023-09-07T19:48:37;100054.97;;;13.75;nan
76205;BME280;64986;55.672;37.628;2023-09-07T19:51:14;100048.03;;;13.74;nan
76205;BME280;64986;55.672;37.628;2023-09-07T19:53:40;100043.94;;;13.78;nan
76205;BME280;64986;55.672;37.628;2023-09-07T19:56:16;100063.09;;;13.74;nan
76205;BME280;64986;55.672;37.628;2023-09-07T19:58:42;100042.75;;;13.68;nan
76205;BME280;64986;55.672;37.628;2023-09-07T20:01:13;100028.97;;;13.59;nan
76205;BME280;64986;55.672;37.628;2023-09-07T20:03:42;100056.59;;;13.76;nan
76205;BME280;64986;55.672;37.628;2023-09-07T20:06:08;100036.66;;;13.67;nan
76205;BME280;64986;55.672;37.628;2023-09-07T20:08:34;100054.22;;;13.62;nan
76205;BME280;64986;55.672;37.628;2023-09-07T20:10:59;100053.00;;;13.57;nan
76205;BME280;64986;55.672;37.628;2023-09-07T20:13:25;100061.94;;;13.63;nan
76205;BME280;64986;55.672;37.628;2023-09-07T20:15:51;100038.59;;;13.47;nan
76205;BME280;64986;55.672;37.628;2023-09-07T20:18:16;100046.53;;;13.53;nan
76205;BME280;64986;55.672;37.628;2023-09-07T20:20:42;100041.03;;;13.48;nan
76205;BME280;64986;55.672;37.628;2023-09-07T20:23:07;100015.78;;;13.52;nan
76205;BME280;64986;55.672;37.628;2023-09-07T20:25:33;100019.25;;;13.53;nan
76205;BME280;64986;55.672;37.628;2023-09-07T20:27:59;100013.19;;;13.46;nan
76205;BME280;64986;55.672;37.628;2023-09-07T20:30:24;100014.00;;;13.46;nan
76205;BME280;64986;55.672;37.628;2023-09-07T20:32:50;100020.75;;;13.29;nan
76205;BME280;64986;55.672;37.628;2023-09-07T20:35:15;100010.72;;;13.44;nan
76205;BME280;64986;55.672;37.628;2023-09-07T20:37:41;100013.22;;;13.39;nan
76205;BME280;64986;55.672;37.628;2023-09-07T20:40:07;100020.47;;;13.50;nan
76205;BME280;64986;55.672;37.628;2023-09-07T20:42:35;100002.19;;;13.42;nan
76205;BME280;64986;55.672;37.628;2023-09-07T20:45:01;100004.66;;;13.37;nan
76205;BME280;64986;55.672;37.628;2023-09-07T20:47:27;100002.88;;;13.31;nan
76205;BME280;64986;55.672;37.628;2023-09-07T20:49:53;100005.88;;;13.41;nan
76205;BME280;64986;55.672;37.628;2023-09-07T20:52:18;100000.00;;;13.39;nan